createdAt,value
2019-04-27T14:29:42.876Z,5.15
2019-04-27T14:34:50.514Z,3.67
2019-04-27T14:39:54.577Z,2.92
2019-04-27T14:44:58.890Z,3.42
2019-04-27T14:50:03.114Z,6.90
2019-04-27T14:55:08.631Z,3.98
2019-04-27T15:00:14.699Z,3.60
2019-04-27T15:05:19.515Z,2.77
2019-04-27T15:10:28.570Z,4.58
2019-04-27T15:15:32.559Z,4.10
2019-04-27T15:20:41.733Z,2.92
2019-04-27T15:25:47.231Z,5.25
2019-04-27T15:31:23.597Z,2.15
2019-04-27T15:36:33.514Z,2.67
2019-04-27T15:41:43.814Z,3.55
2019-04-27T15:46:48.279Z,1.80
2019-04-27T15:51:56.258Z,1.15
2019-04-27T15:57:00.467Z,3.02
2019-04-27T16:02:05.456Z,2.52
2019-04-27T16:07:10.765Z,3.42
2019-04-27T16:12:15.140Z,2.85
2019-04-27T16:17:20.495Z,5.53
2019-04-27T16:22:26.904Z,4.90
2019-04-27T16:27:34.113Z,4.22
2019-04-27T16:32:36.432Z,2.70
2019-04-27T16:38:00.223Z,1.75
2019-04-27T16:43:04.425Z,3.60
2019-04-27T16:48:11.349Z,4.75
2019-04-27T16:53:15.761Z,5.30
2019-04-27T16:58:21.335Z,10.98
2019-04-27T17:03:25.754Z,5.60
2019-04-27T17:08:29.852Z,4.12
2019-04-27T17:13:38.979Z,4.08
2019-04-27T17:18:52.798Z,4.37
2019-04-27T17:23:56.942Z,2.33
2019-04-27T17:29:16.048Z,1.75
2019-04-27T17:34:19.005Z,2.27
2019-04-27T17:39:23.473Z,4.90
2019-04-27T17:44:28.882Z,3.12
2019-04-27T17:49:33.151Z,3.05
2019-04-27T17:54:42.474Z,11.18
2019-04-27T17:59:44.357Z,5.15
2019-04-27T18:04:51.267Z,3.00
2019-04-27T18:10:00.181Z,6.55
2019-04-27T18:15:04.620Z,6.78
2019-04-27T18:20:11.835Z,5.25
2019-04-27T18:25:16.246Z,11.80
2019-04-27T18:30:33.731Z,5.60
2019-04-27T18:35:39.232Z,3.40
2019-04-27T18:45:48.497Z,2.58
2019-04-27T18:51:25.115Z,2.98
2019-04-27T18:56:33.473Z,5.53
2019-04-27T19:01:37.429Z,4.67
2019-04-27T19:06:41.603Z,5.40
2019-04-27T19:11:55.823Z,2.95
2019-04-27T19:16:52.409Z,2.55
2019-04-27T19:21:58.832Z,5.20
2019-04-27T19:27:21.288Z,3.25
2019-04-27T19:32:28.002Z,4.22
2019-04-27T19:37:32.211Z,8.38
2019-04-27T19:42:36.564Z,4.50
2019-04-27T19:47:42.612Z,6.60
2019-04-27T19:52:46.911Z,7.37
2019-04-27T19:57:54.067Z,5.15
2019-04-27T20:03:00.061Z,5.08
2019-04-27T20:08:05.896Z,3.35
2019-04-27T20:13:10.920Z,5.97
2019-04-27T20:18:20.782Z,5.87
2019-04-27T20:23:24.720Z,4.90
2019-04-27T20:28:31.265Z,4.65
2019-04-27T20:33:35.287Z,7.03
2019-04-27T20:38:39.667Z,6.62
2019-04-27T20:43:43.714Z,8.60
2019-04-27T20:48:47.685Z,4.25
2019-04-27T20:53:53.247Z,5.22
2019-04-27T20:58:57.602Z,5.80
2019-04-27T21:04:04.100Z,7.60
2019-04-27T21:09:16.437Z,5.37
2019-04-27T21:14:22.107Z,8.83
2019-04-27T21:19:26.013Z,6.67
2019-04-27T21:24:32.999Z,7.00
2019-04-27T21:29:37.053Z,9.38
2019-04-27T21:34:41.576Z,14.65
2019-04-27T21:39:45.583Z,6.58
2019-04-27T21:44:50.583Z,6.55
2019-04-27T21:49:55.977Z,6.92
2019-04-27T21:55:01.428Z,11.22
2019-04-27T22:00:10.897Z,7.45
2019-04-27T22:05:14.948Z,6.55
2019-04-27T22:10:20.845Z,10.03
2019-04-27T22:15:25.257Z,10.82
2019-04-27T22:20:29.538Z,9.03
2019-04-27T22:25:35.927Z,7.20
2019-04-27T22:30:40.652Z,9.53
2019-04-27T22:41:06.203Z,11.03
2019-04-27T22:46:13.465Z,11.93
2019-04-27T22:51:17.499Z,15.80
2019-04-27T22:56:23.540Z,10.93
2019-04-27T23:01:51.236Z,10.13
2019-04-27T23:06:55.934Z,7.22
2019-04-27T23:12:01.818Z,13.25
2019-04-27T23:17:34.637Z,11.73
2019-04-27T23:22:38.807Z,11.35
2019-04-27T23:27:42.910Z,10.08
2019-04-27T23:32:48.652Z,9.40
2019-04-27T23:37:53.017Z,8.85
2019-04-27T23:42:57.354Z,11.15
2019-04-27T23:48:01.362Z,11.25
2019-04-27T23:53:13.520Z,10.25
2019-04-27T23:58:17.481Z,12.30
